sensor_id;sensor_type;location;lat;lon;timestamp;P1;durP1;ratioP1;P2;durP2;ratioP2
76727;SDS011;65652;53.132;18.026;2023-07-31T00:01:50;3.80;;;1.40;;
76727;SDS011;65652;53.132;18.026;2023-07-31T00:04:16;4.70;;;1.50;;
76727;SDS011;65652;53.132;18.026;2023-07-31T00:06:42;4.90;;;1.80;;
76727;SDS011;65652;53.132;18.026;2023-07-31T00:09:08;6.10;;;2.00;;
76727;SDS011;65652;53.132;18.026;2023-07-31T00:11:35;3.90;;;1.60;;
76727;SDS011;65652;53.132;18.026;2023-07-31T00:14:01;4.20;;;1.50;;
76727;SDS011;65652;53.132;18.026;2023-07-31T00:16:27;5.00;;;1.50;;
76727;SDS011;65652;53.132;18.026;2023-07-31T00:18:53;4.30;;;1.60;;
76727;SDS011;65652;53.132;18.026;2023-07-31T00:21:20;4.60;;;1.70;;
76727;SDS011;65652;53.132;18.026;2023-07-31T00:23:46;4.30;;;1.80;;
76727;SDS011;65652;53.132;18.026;2023-07-31T00:26:12;4.70;;;1.60;;
76727;SDS011;65652;53.132;18.026;2023-07-31T00:28:38;4.70;;;1.20;;
76727;SDS011;65652;53.132;18.026;2023-07-31T00:31:04;3.70;;;1.40;;
76727;SDS011;65652;53.132;18.026;2023-07-31T00:33:30;4.50;;;1.70;;
76727;SDS011;65652;53.132;18.026;2023-07-31T00:35:57;4.90;;;1.80;;
76727;SDS011;65652;53.132;18.026;2023-07-31T00:38:25;3.70;;;1.70;;
76727;SDS011;65652;53.132;18.026;2023-07-31T00:40:51;4.30;;;1.70;;
76727;SDS011;65652;53.132;18.026;2023-07-31T00:43:17;4.60;;;1.60;;
76727;SDS011;65652;53.132;18.026;2023-07-31T00:45:44;5.40;;;1.80;;
76727;SDS011;65652;53.132;18.026;2023-07-31T00:48:11;6.60;;;2.00;;
76727;SDS011;65652;53.132;18.026;2023-07-31T00:50:37;5.70;;;1.60;;
76727;SDS011;65652;53.132;18.026;2023-07-31T00:53:04;4.80;;;2.10;;
76727;SDS011;65652;53.132;18.026;2023-07-31T00:55:32;7.90;;;1.90;;
76727;SDS011;65652;53.132;18.026;2023-07-31T00:57:59;6.20;;;1.60;;
76727;SDS011;65652;53.132;18.026;2023-07-31T01:00:25;4.20;;;1.90;;
76727;SDS011;65652;53.132;18.026;2023-07-31T01:02:52;4.60;;;1.80;;
76727;SDS011;65652;53.132;18.026;2023-07-31T01:05:25;5.60;;;1.90;;
76727;SDS011;65652;53.132;18.026;2023-07-31T01:08:12;5.90;;;2.00;;
76727;SDS011;65652;53.132;18.026;2023-07-31T01:10:49;5.60;;;1.90;;
76727;SDS011;65652;53.132;18.026;2023-07-31T01:15:47;5.70;;;2.20;;
76727;SDS011;65652;53.132;18.026;2023-07-31T01:18:13;6.60;;;2.10;;
76727;SDS011;65652;53.132;18.026;2023-07-31T01:20:39;5.40;;;1.90;;
76727;SDS011;65652;53.132;18.026;2023-07-31T01:31:12;4.80;;;2.00;;
76727;SDS011;65652;53.132;18.026;2023-07-31T01:33:42;6.00;;;1.80;;
76727;SDS011;65652;53.132;18.026;2023-07-31T01:36:08;5.80;;;1.90;;
76727;SDS011;65652;53.132;18.026;2023-07-31T01:38:36;5.60;;;1.70;;
76727;SDS011;65652;53.132;18.026;2023-07-31T01:41:02;5.30;;;1.70;;
76727;SDS011;65652;53.132;18.026;2023-07-31T01:43:28;6.90;;;2.00;;
76727;SDS011;65652;53.132;18.026;2023-07-31T01:45:55;6.20;;;2.10;;
76727;SDS011;65652;53.132;18.026;2023-07-31T01:48:21;5.70;;;1.70;;
76727;SDS011;65652;53.132;18.026;2023-07-31T01:50:47;5.60;;;1.70;;
76727;SDS011;65652;53.132;18.026;2023-07-31T01:55:41;7.40;;;1.90;;
76727;SDS011;65652;53.132;18.026;2023-07-31T01:58:08;4.20;;;1.70;;
76727;SDS011;65652;53.132;18.026;2023-07-31T02:00:34;6.00;;;1.90;;
76727;SDS011;65652;53.132;18.026;2023-07-31T02:03:00;5.30;;;1.60;;
76727;SDS011;65652;53.132;18.026;2023-07-31T02:05:26;6.00;;;2.00;;
76727;SDS011;65652;53.132;18.026;2023-07-31T02:07:53;6.30;;;2.00;;
76727;SDS011;65652;53.132;18.026;2023-07-31T02:10:19;5.60;;;2.00;;
76727;SDS011;65652;53.132;18.026;2023-07-31T02:12:45;5.30;;;1.90;;
76727;SDS011;65652;53.132;18.026;2023-07-31T02:15:11;4.80;;;1.90;;
76727;SDS011;65652;53.132;18.026;2023-07-31T02:17:37;5.70;;;2.10;;
76727;SDS011;65652;53.132;18.026;2023-07-31T02:20:03;5.30;;;1.80;;
76727;SDS011;65652;53.132;18.026;2023-07-31T02:22:30;4.50;;;1.70;;
76727;SDS011;65652;53.132;18.026;2023-07-31T02:24:56;5.60;;;2.00;;
76727;SDS011;65652;53.132;18.026;2023-07-31T02:27:22;6.20;;;2.40;;
76727;SDS011;65652;53.132;18.026;2023-07-31T02:29:53;5.60;;;1.80;;
76727;SDS011;65652;53.132;18.026;2023-07-31T02:32:20;5.60;;;2.30;;
76727;SDS011;65652;53.132;18.026;2023-07-31T02:34:46;5.10;;;1.90;;
76727;SDS011;65652;53.132;18.026;2023-07-31T02:37:12;4.90;;;1.70;;
76727;SDS011;65652;53.132;18.026;2023-07-31T02:39:38;5.90;;;2.30;;
76727;SDS011;65652;53.132;18.026;2023-07-31T02:42:05;6.20;;;2.10;;
76727;SDS011;65652;53.132;18.026;2023-07-31T02:44:31;5.40;;;1.90;;
76727;SDS011;65652;53.132;18.026;2023-07-31T02:46:57;4.60;;;1.80;;
76727;SDS011;65652;53.132;18.026;2023-07-31T02:49:23;5.10;;;1.80;;
76727;SDS011;65652;53.132;18.026;2023-07-31T02:51:49;5.00;;;1.80;;
76727;SDS011;65652;53.132;18.026;2023-07-31T02:54:16;6.30;;;2.20;;
76727;SDS011;65652;53.132;18.026;2023-07-31T02:56:42;7.00;;;2.20;;
76727;SDS011;65652;53.132;18.026;2023-07-31T02:59:08;6.50;;;2.00;;
76727;SDS011;65652;53.132;18.026;2023-07-31T03:01:34;4.70;;;1.90;;
76727;SDS011;65652;53.132;18.026;2023-07-31T03:04:00;6.70;;;2.10;;
76727;SDS011;65652;53.132;18.026;2023-07-31T03:06:26;6.20;;;2.20;;
76727;SDS011;65652;53.132;18.026;2023-07-31T03:08:52;6.00;;;2.20;;
76727;SDS011;65652;53.132;18.026;2023-07-31T03:11:19;5.10;;;1.90;;
76727;SDS011;65652;53.132;18.026;2023-07-31T03:13:45;5.40;;;2.20;;
76727;SDS011;65652;53.132;18.026;2023-07-31T03:16:11;4.80;;;1.80;;
76727;SDS011;65652;53.132;18.026;2023-07-31T03:18:37;4.80;;;2.10;;
76727;SDS011;65652;53.132;18.026;2023-07-31T03:21:03;4.90;;;2.10;;
76727;SDS011;65652;53.132;18.026;2023-07-31T03:23:30;6.40;;;2.30;;
76727;SDS011;65652;53.132;18.026;2023-07-31T03:25:57;5.90;;;2.30;;
76727;SDS011;65652;53.132;18.026;2023-07-31T03:28:29;5.00;;;1.80;;
76727;SDS011;65652;53.132;18.026;2023-07-31T03:30:55;8.90;;;2.10;;
76727;SDS011;65652;53.132;18.026;2023-07-31T03:33:22;6.30;;;1.90;;
76727;SDS011;65652;53.132;18.026;2023-07-31T03:35:49;5.30;;;1.70;;
76727;SDS011;65652;53.132;18.026;2023-07-31T03:38:15;4.80;;;2.00;;
76727;SDS011;65652;53.132;18.026;2023-07-31T03:40:41;4.40;;;2.00;;
76727;SDS011;65652;53.132;18.026;2023-07-31T03:43:07;5.50;;;2.00;;
76727;SDS011;65652;53.132;18.026;2023-07-31T03:45:34;6.00;;;2.20;;
76727;SDS011;65652;53.132;18.026;2023-07-31T03:48:00;5.00;;;2.20;;
76727;SDS011;65652;53.132;18.026;2023-07-31T03:50:27;5.90;;;1.80;;
76727;SDS011;65652;53.132;18.026;2023-07-31T03:52:53;5.60;;;2.00;;
76727;SDS011;65652;53.132;18.026;2023-07-31T03:55:19;4.90;;;2.20;;
76727;SDS011;65652;53.132;18.026;2023-07-31T03:57:45;6.90;;;3.00;;
76727;SDS011;65652;53.132;18.026;2023-07-31T04:00:11;4.90;;;1.90;;
76727;SDS011;65652;53.132;18.026;2023-07-31T04:02:41;5.10;;;2.30;;
76727;SDS011;65652;53.132;18.026;2023-07-31T04:05:07;6.10;;;1.80;;
76727;SDS011;65652;53.132;18.026;2023-07-31T04:07:33;8.00;;;2.10;;
76727;SDS011;65652;53.132;18.026;2023-07-31T04:09:59;6.10;;;2.10;;
76727;SDS011;65652;53.132;18.026;2023-07-31T04:12:26;7.50;;;2.40;;
76727;SDS011;65652;53.132;18.026;2023-07-31T04:14:52;4.60;;;1.80;;
76727;SDS011;65652;53.132;18.026;2023-07-31T04:17:18;8.00;;;2.60;;
76727;SDS011;65652;53.132;18.026;2023-07-31T04:19:44;10.50;;;1.80;;
76727;SDS011;65652;53.132;18.026;2023-07-31T04:22:10;5.90;;;2.00;;
76727;SDS011;65652;53.132;18.026;2023-07-31T04:24:36;6.40;;;2.20;;
76727;SDS011;65652;53.132;18.026;2023-07-31T04:27:03;6.80;;;1.70;;
76727;SDS011;65652;53.132;18.026;2023-07-31T04:29:29;7.30;;;2.40;;
76727;SDS011;65652;53.132;18.026;2023-07-31T04:31:55;6.60;;;1.90;;
76727;SDS011;65652;53.132;18.026;2023-07-31T04:34:21;4.80;;;2.10;;
76727;SDS011;65652;53.132;18.026;2023-07-31T04:36:47;4.90;;;1.70;;
76727;SDS011;65652;53.132;18.026;2023-07-31T04:39:13;8.10;;;2.20;;
76727;SDS011;65652;53.132;18.026;2023-07-31T04:41:39;6.80;;;1.90;;
76727;SDS011;65652;53.132;18.026;2023-07-31T04:44:06;4.90;;;1.60;;
76727;SDS011;65652;53.132;18.026;2023-07-31T04:46:32;5.70;;;1.80;;
76727;SDS011;65652;53.132;18.026;2023-07-31T04:48:58;5.50;;;1.90;;
76727;SDS011;65652;53.132;18.026;2023-07-31T04:51:25;5.40;;;1.90;;
76727;SDS011;65652;53.132;18.026;2023-07-31T04:53:51;5.00;;;2.10;;
76727;SDS011;65652;53.132;18.026;2023-07-31T04:56:17;7.70;;;2.00;;
76727;SDS011;65652;53.132;18.026;2023-07-31T04:58:43;5.80;;;1.50;;
76727;SDS011;65652;53.132;18.026;2023-07-31T05:01:09;6.80;;;2.20;;
76727;SDS011;65652;53.132;18.026;2023-07-31T05:03:35;4.90;;;1.70;;
76727;SDS011;65652;53.132;18.026;2023-07-31T05:06:01;5.20;;;1.90;;
76727;SDS011;65652;53.132;18.026;2023-07-31T05:08:27;6.90;;;1.70;;
76727;SDS011;65652;53.132;18.026;2023-07-31T05:10:54;6.40;;;1.70;;
76727;SDS011;65652;53.132;18.026;2023-07-31T05:13:20;4.70;;;1.60;;
76727;SDS011;65652;53.132;18.026;2023-07-31T05:15:46;6.00;;;1.70;;
76727;SDS011;65652;53.132;18.026;2023-07-31T05:18:12;6.70;;;2.30;;
76727;SDS011;65652;53.132;18.026;2023-07-31T05:20:38;6.10;;;2.00;;
76727;SDS011;65652;53.132;18.026;2023-07-31T05:23:04;4.60;;;1.60;;
76727;SDS011;65652;53.132;18.026;2023-07-31T05:25:31;5.90;;;1.50;;
76727;SDS011;65652;53.132;18.026;2023-07-31T05:27:57;4.80;;;1.30;;
76727;SDS011;65652;53.132;18.026;2023-07-31T05:30:23;5.30;;;1.70;;
76727;SDS011;65652;53.132;18.026;2023-07-31T05:32:49;5.70;;;1.70;;
76727;SDS011;65652;53.132;18.026;2023-07-31T05:35:15;5.50;;;1.50;;
76727;SDS011;65652;53.132;18.026;2023-07-31T05:37:42;4.60;;;1.60;;
76727;SDS011;65652;53.132;18.026;2023-07-31T05:40:08;5.60;;;2.00;;
76727;SDS011;65652;53.132;18.026;2023-07-31T05:42:34;5.20;;;1.70;;
76727;SDS011;65652;53.132;18.026;2023-07-31T05:47:28;6.90;;;1.90;;
76727;SDS011;65652;53.132;18.026;2023-07-31T05:49:54;4.20;;;1.50;;
76727;SDS011;65652;53.132;18.026;2023-07-31T05:52:20;4.30;;;1.40;;
76727;SDS011;65652;53.132;18.026;2023-07-31T05:54:46;5.00;;;1.50;;
76727;SDS011;65652;53.132;18.026;2023-07-31T05:57:13;5.50;;;1.80;;
76727;SDS011;65652;53.132;18.026;2023-07-31T05:59:39;4.90;;;1.70;;
76727;SDS011;65652;53.132;18.026;2023-07-31T06:02:05;7.00;;;1.90;;
76727;SDS011;65652;53.132;18.026;2023-07-31T06:04:31;4.80;;;1.50;;
76727;SDS011;65652;53.132;18.026;2023-07-31T06:06:58;4.90;;;1.30;;
76727;SDS011;65652;53.132;18.026;2023-07-31T06:09:24;4.50;;;1.50;;
76727;SDS011;65652;53.132;18.026;2023-07-31T06:11:51;4.30;;;1.60;;
76727;SDS011;65652;53.132;18.026;2023-07-31T06:14:17;5.50;;;1.70;;
76727;SDS011;65652;53.132;18.026;2023-07-31T06:16:44;4.80;;;1.60;;
76727;SDS011;65652;53.132;18.026;2023-07-31T06:19:10;6.00;;;1.80;;
76727;SDS011;65652;53.132;18.026;2023-07-31T06:21:36;3.80;;;1.20;;
76727;SDS011;65652;53.132;18.026;2023-07-31T06:24:03;7.40;;;1.90;;
76727;SDS011;65652;53.132;18.026;2023-07-31T06:26:31;3.90;;;1.50;;
76727;SDS011;65652;53.132;18.026;2023-07-31T06:28:57;5.60;;;1.60;;
76727;SDS011;65652;53.132;18.026;2023-07-31T06:31:23;5.30;;;1.40;;
76727;SDS011;65652;53.132;18.026;2023-07-31T06:33:50;4.40;;;1.30;;
76727;SDS011;65652;53.132;18.026;2023-07-31T06:36:17;4.50;;;1.60;;
76727;SDS011;65652;53.132;18.026;2023-07-31T06:38:44;4.30;;;1.40;;
76727;SDS011;65652;53.132;18.026;2023-07-31T06:41:10;4.40;;;1.30;;
76727;SDS011;65652;53.132;18.026;2023-07-31T06:43:36;4.00;;;1.30;;
76727;SDS011;65652;53.132;18.026;2023-07-31T06:46:06;5.20;;;1.30;;
76727;SDS011;65652;53.132;18.026;2023-07-31T06:48:33;5.30;;;1.20;;
76727;SDS011;65652;53.132;18.026;2023-07-31T06:51:00;7.10;;;1.40;;
76727;SDS011;65652;53.132;18.026;2023-07-31T06:53:26;3.90;;;1.10;;
76727;SDS011;65652;53.132;18.026;2023-07-31T06:55:53;3.90;;;1.30;;
76727;SDS011;65652;53.132;18.026;2023-07-31T06:58:20;3.80;;;1.20;;
76727;SDS011;65652;53.132;18.026;2023-07-31T07:00:46;3.90;;;1.20;;
76727;SDS011;65652;53.132;18.026;2023-07-31T07:03:15;4.40;;;1.50;;
76727;SDS011;65652;53.132;18.026;2023-07-31T07:05:43;4.00;;;1.20;;
76727;SDS011;65652;53.132;18.026;2023-07-31T07:08:09;3.90;;;1.20;;
76727;SDS011;65652;53.132;18.026;2023-07-31T07:10:36;4.80;;;1.20;;
76727;SDS011;65652;53.132;18.026;2023-07-31T07:13:02;4.70;;;1.30;;
76727;SDS011;65652;53.132;18.026;2023-07-31T07:15:29;5.90;;;1.50;;
76727;SDS011;65652;53.132;18.026;2023-07-31T07:17:55;5.60;;;1.40;;
76727;SDS011;65652;53.132;18.026;2023-07-31T07:20:21;6.70;;;1.40;;
76727;SDS011;65652;53.132;18.026;2023-07-31T07:22:47;4.90;;;1.30;;
76727;SDS011;65652;53.132;18.026;2023-07-31T07:25:13;4.20;;;1.30;;
76727;SDS011;65652;53.132;18.026;2023-07-31T07:27:39;4.20;;;1.00;;
76727;SDS011;65652;53.132;18.026;2023-07-31T07:30:05;4.30;;;1.20;;
76727;SDS011;65652;53.132;18.026;2023-07-31T07:32:32;3.80;;;1.10;;
76727;SDS011;65652;53.132;18.026;2023-07-31T07:34:58;7.20;;;1.40;;
76727;SDS011;65652;53.132;18.026;2023-07-31T07:37:24;5.90;;;1.50;;
76727;SDS011;65652;53.132;18.026;2023-07-31T07:39:51;4.20;;;1.30;;
76727;SDS011;65652;53.132;18.026;2023-07-31T07:42:17;5.10;;;1.30;;
76727;SDS011;65652;53.132;18.026;2023-07-31T07:44:43;4.90;;;1.20;;
76727;SDS011;65652;53.132;18.026;2023-07-31T07:47:10;4.40;;;1.00;;
76727;SDS011;65652;53.132;18.026;2023-07-31T07:49:36;5.80;;;1.30;;
76727;SDS011;65652;53.132;18.026;2023-07-31T07:52:02;5.10;;;1.20;;
76727;SDS011;65652;53.132;18.026;2023-07-31T07:54:29;4.70;;;1.30;;
76727;SDS011;65652;53.132;18.026;2023-07-31T07:56:56;5.70;;;1.50;;
76727;SDS011;65652;53.132;18.026;2023-07-31T07:59:22;4.40;;;1.30;;
76727;SDS011;65652;53.132;18.026;2023-07-31T08:01:48;3.60;;;1.00;;
76727;SDS011;65652;53.132;18.026;2023-07-31T08:04:14;4.50;;;1.10;;
76727;SDS011;65652;53.132;18.026;2023-07-31T08:06:40;4.10;;;1.10;;
76727;SDS011;65652;53.132;18.026;2023-07-31T08:09:06;4.40;;;0.90;;
76727;SDS011;65652;53.132;18.026;2023-07-31T08:11:34;4.00;;;0.90;;
76727;SDS011;65652;53.132;18.026;2023-07-31T08:14:00;3.40;;;1.00;;
76727;SDS011;65652;53.132;18.026;2023-07-31T08:16:27;4.40;;;0.80;;
76727;SDS011;65652;53.132;18.026;2023-07-31T08:18:53;3.80;;;0.80;;
76727;SDS011;65652;53.132;18.026;2023-07-31T08:21:19;4.30;;;1.10;;
76727;SDS011;65652;53.132;18.026;2023-07-31T08:23:45;4.80;;;0.90;;
76727;SDS011;65652;53.132;18.026;2023-07-31T08:26:18;3.20;;;1.00;;
76727;SDS011;65652;53.132;18.026;2023-07-31T08:28:44;4.00;;;0.90;;
76727;SDS011;65652;53.132;18.026;2023-07-31T08:31:11;5.10;;;1.10;;
76727;SDS011;65652;53.132;18.026;2023-07-31T08:33:37;5.50;;;1.10;;
76727;SDS011;65652;53.132;18.026;2023-07-31T08:36:04;3.60;;;0.90;;
76727;SDS011;65652;53.132;18.026;2023-07-31T08:38:30;3.80;;;1.20;;
76727;SDS011;65652;53.132;18.026;2023-07-31T08:40:57;3.50;;;0.80;;
76727;SDS011;65652;53.132;18.026;2023-07-31T08:43:27;4.80;;;1.20;;
76727;SDS011;65652;53.132;18.026;2023-07-31T08:45:54;4.60;;;0.90;;
76727;SDS011;65652;53.132;18.026;2023-07-31T08:48:21;4.70;;;1.00;;
76727;SDS011;65652;53.132;18.026;2023-07-31T08:50:49;3.40;;;1.00;;
76727;SDS011;65652;53.132;18.026;2023-07-31T08:53:17;4.60;;;1.00;;
76727;SDS011;65652;53.132;18.026;2023-07-31T08:55:44;4.60;;;1.00;;
76727;SDS011;65652;53.132;18.026;2023-07-31T08:58:10;4.40;;;0.90;;
76727;SDS011;65652;53.132;18.026;2023-07-31T09:00:38;3.20;;;0.90;;
76727;SDS011;65652;53.132;18.026;2023-07-31T09:05:38;4.20;;;0.90;;
76727;SDS011;65652;53.132;18.026;2023-07-31T09:08:09;4.70;;;1.30;;
76727;SDS011;65652;53.132;18.026;2023-07-31T09:10:43;4.70;;;1.10;;
76727;SDS011;65652;53.132;18.026;2023-07-31T09:13:12;4.90;;;1.00;;
76727;SDS011;65652;53.132;18.026;2023-07-31T09:15:43;4.50;;;1.00;;
76727;SDS011;65652;53.132;18.026;2023-07-31T09:18:10;4.60;;;1.20;;
76727;SDS011;65652;53.132;18.026;2023-07-31T09:20:37;5.10;;;1.10;;
76727;SDS011;65652;53.132;18.026;2023-07-31T09:23:10;4.60;;;1.30;;
76727;SDS011;65652;53.132;18.026;2023-07-31T09:25:38;3.60;;;1.40;;
76727;SDS011;65652;53.132;18.026;2023-07-31T09:28:06;3.00;;;1.00;;
76727;SDS011;65652;53.132;18.026;2023-07-31T09:30:51;4.70;;;1.30;;
76727;SDS011;65652;53.132;18.026;2023-07-31T09:33:18;4.30;;;1.20;;
76727;SDS011;65652;53.132;18.026;2023-07-31T09:35:45;4.40;;;1.40;;
76727;SDS011;65652;53.132;18.026;2023-07-31T09:38:14;5.30;;;1.40;;
76727;SDS011;65652;53.132;18.026;2023-07-31T09:40:45;4.70;;;1.50;;
76727;SDS011;65652;53.132;18.026;2023-07-31T09:43:13;4.60;;;1.40;;
76727;SDS011;65652;53.132;18.026;2023-07-31T09:45:43;4.90;;;1.60;;
76727;SDS011;65652;53.132;18.026;2023-07-31T09:48:11;4.80;;;1.30;;
76727;SDS011;65652;53.132;18.026;2023-07-31T09:50:41;4.60;;;1.50;;
76727;SDS011;65652;53.132;18.026;2023-07-31T09:53:08;4.20;;;1.20;;
76727;SDS011;65652;53.132;18.026;2023-07-31T09:55:36;7.40;;;1.70;;
76727;SDS011;65652;53.132;18.026;2023-07-31T09:58:04;7.80;;;2.00;;
76727;SDS011;65652;53.132;18.026;2023-07-31T10:00:31;4.00;;;1.30;;
76727;SDS011;65652;53.132;18.026;2023-07-31T10:02:59;5.60;;;1.50;;
76727;SDS011;65652;53.132;18.026;2023-07-31T10:05:39;4.90;;;1.20;;
76727;SDS011;65652;53.132;18.026;2023-07-31T10:08:09;6.60;;;1.80;;
76727;SDS011;65652;53.132;18.026;2023-07-31T10:10:36;5.20;;;1.80;;
76727;SDS011;65652;53.132;18.026;2023-07-31T10:13:03;4.40;;;1.80;;
76727;SDS011;65652;53.132;18.026;2023-07-31T10:17:57;4.80;;;1.50;;
76727;SDS011;65652;53.132;18.026;2023-07-31T10:20:25;5.90;;;2.00;;
76727;SDS011;65652;53.132;18.026;2023-07-31T10:22:53;5.10;;;1.60;;
76727;SDS011;65652;53.132;18.026;2023-07-31T10:25:21;6.10;;;1.80;;
76727;SDS011;65652;53.132;18.026;2023-07-31T10:27:48;6.60;;;2.40;;
76727;SDS011;65652;53.132;18.026;2023-07-31T10:30:16;6.30;;;2.20;;
76727;SDS011;65652;53.132;18.026;2023-07-31T10:32:44;5.30;;;1.90;;
76727;SDS011;65652;53.132;18.026;2023-07-31T10:35:11;5.00;;;1.80;;
76727;SDS011;65652;53.132;18.026;2023-07-31T10:37:39;7.70;;;2.20;;
76727;SDS011;65652;53.132;18.026;2023-07-31T10:45:31;5.00;;;1.80;;
76727;SDS011;65652;53.132;18.026;2023-07-31T10:50:26;5.50;;;1.90;;
76727;SDS011;65652;53.132;18.026;2023-07-31T10:52:56;5.70;;;1.80;;
76727;SDS011;65652;53.132;18.026;2023-07-31T10:55:33;6.20;;;1.80;;
76727;SDS011;65652;53.132;18.026;2023-07-31T10:58:11;6.20;;;1.90;;
76727;SDS011;65652;53.132;18.026;2023-07-31T11:00:41;6.30;;;1.90;;
76727;SDS011;65652;53.132;18.026;2023-07-31T11:03:13;5.70;;;1.40;;
76727;SDS011;65652;53.132;18.026;2023-07-31T11:06:00;7.40;;;1.40;;
76727;SDS011;65652;53.132;18.026;2023-07-31T11:13:29;3.80;;;1.20;;
76727;SDS011;65652;53.132;18.026;2023-07-31T11:15:56;4.60;;;1.30;;
76727;SDS011;65652;53.132;18.026;2023-07-31T11:18:22;5.30;;;1.20;;
76727;SDS011;65652;53.132;18.026;2023-07-31T11:20:49;4.60;;;1.10;;
76727;SDS011;65652;53.132;18.026;2023-07-31T11:23:16;3.70;;;1.00;;
76727;SDS011;65652;53.132;18.026;2023-07-31T11:25:43;5.90;;;1.30;;
76727;SDS011;65652;53.132;18.026;2023-07-31T11:28:11;4.60;;;1.10;;
76727;SDS011;65652;53.132;18.026;2023-07-31T11:30:42;5.80;;;1.10;;
76727;SDS011;65652;53.132;18.026;2023-07-31T11:33:12;5.20;;;1.20;;
76727;SDS011;65652;53.132;18.026;2023-07-31T11:35:45;5.10;;;1.10;;
76727;SDS011;65652;53.132;18.026;2023-07-31T11:38:23;4.70;;;1.30;;
76727;SDS011;65652;53.132;18.026;2023-07-31T11:40:55;4.30;;;1.20;;
76727;SDS011;65652;53.132;18.026;2023-07-31T11:43:25;4.00;;;1.20;;
76727;SDS011;65652;53.132;18.026;2023-07-31T11:45:53;3.90;;;1.20;;
76727;SDS011;65652;53.132;18.026;2023-07-31T11:48:25;4.00;;;1.40;;
76727;SDS011;65652;53.132;18.026;2023-07-31T11:51:00;4.70;;;1.70;;
76727;SDS011;65652;53.132;18.026;2023-07-31T11:53:43;4.20;;;1.40;;
76727;SDS011;65652;53.132;18.026;2023-07-31T11:56:17;4.00;;;1.40;;
76727;SDS011;65652;53.132;18.026;2023-07-31T11:58:48;3.70;;;1.40;;
76727;SDS011;65652;53.132;18.026;2023-07-31T12:01:23;4.60;;;1.40;;
76727;SDS011;65652;53.132;18.026;2023-07-31T12:03:50;3.70;;;1.20;;
76727;SDS011;65652;53.132;18.026;2023-07-31T12:06:17;5.20;;;1.70;;
76727;SDS011;65652;53.132;18.026;2023-07-31T12:08:46;6.10;;;1.50;;
76727;SDS011;65652;53.132;18.026;2023-07-31T12:11:13;3.80;;;1.50;;
76727;SDS011;65652;53.132;18.026;2023-07-31T12:13:40;4.70;;;1.60;;
76727;SDS011;65652;53.132;18.026;2023-07-31T12:16:07;5.40;;;1.50;;
76727;SDS011;65652;53.132;18.026;2023-07-31T12:18:34;7.90;;;1.50;;
76727;SDS011;65652;53.132;18.026;2023-07-31T12:21:02;4.30;;;1.60;;
76727;SDS011;65652;53.132;18.026;2023-07-31T12:23:31;3.70;;;1.20;;
76727;SDS011;65652;53.132;18.026;2023-07-31T12:26:10;5.00;;;1.40;;
76727;SDS011;65652;53.132;18.026;2023-07-31T12:28:40;4.70;;;1.20;;
76727;SDS011;65652;53.132;18.026;2023-07-31T12:31:17;3.80;;;1.30;;
76727;SDS011;65652;53.132;18.026;2023-07-31T12:33:48;3.80;;;1.30;;
76727;SDS011;65652;53.132;18.026;2023-07-31T12:36:16;3.70;;;1.00;;
76727;SDS011;65652;53.132;18.026;2023-07-31T12:38:47;4.50;;;1.20;;
76727;SDS011;65652;53.132;18.026;2023-07-31T12:41:13;3.50;;;1.10;;
76727;SDS011;65652;53.132;18.026;2023-07-31T12:43:40;4.20;;;1.10;;
76727;SDS011;65652;53.132;18.026;2023-07-31T12:46:08;4.50;;;1.30;;
76727;SDS011;65652;53.132;18.026;2023-07-31T12:48:35;4.50;;;1.30;;
76727;SDS011;65652;53.132;18.026;2023-07-31T12:53:29;3.30;;;1.10;;
76727;SDS011;65652;53.132;18.026;2023-07-31T12:55:55;4.40;;;1.10;;
76727;SDS011;65652;53.132;18.026;2023-07-31T12:58:22;3.30;;;1.10;;
76727;SDS011;65652;53.132;18.026;2023-07-31T13:00:48;4.00;;;1.50;;
76727;SDS011;65652;53.132;18.026;2023-07-31T13:03:15;4.40;;;1.20;;
76727;SDS011;65652;53.132;18.026;2023-07-31T13:05:41;4.30;;;1.40;;
76727;SDS011;65652;53.132;18.026;2023-07-31T13:08:07;4.00;;;1.30;;
76727;SDS011;65652;53.132;18.026;2023-07-31T13:10:34;4.60;;;1.40;;
76727;SDS011;65652;53.132;18.026;2023-07-31T13:13:00;4.40;;;1.50;;
76727;SDS011;65652;53.132;18.026;2023-07-31T13:15:26;4.50;;;1.40;;
76727;SDS011;65652;53.132;18.026;2023-07-31T13:17:52;3.80;;;1.50;;
76727;SDS011;65652;53.132;18.026;2023-07-31T13:20:18;4.60;;;1.50;;
76727;SDS011;65652;53.132;18.026;2023-07-31T13:22:44;4.40;;;1.30;;
76727;SDS011;65652;53.132;18.026;2023-07-31T13:25:11;3.50;;;1.50;;
76727;SDS011;65652;53.132;18.026;2023-07-31T13:27:37;3.60;;;1.50;;
76727;SDS011;65652;53.132;18.026;2023-07-31T13:30:03;3.50;;;1.10;;
76727;SDS011;65652;53.132;18.026;2023-07-31T13:32:30;4.50;;;1.30;;
76727;SDS011;65652;53.132;18.026;2023-07-31T13:34:56;3.80;;;1.60;;
76727;SDS011;65652;53.132;18.026;2023-07-31T13:37:22;4.30;;;1.60;;
76727;SDS011;65652;53.132;18.026;2023-07-31T13:39:48;5.00;;;1.60;;
76727;SDS011;65652;53.132;18.026;2023-07-31T13:42:14;3.80;;;1.20;;
76727;SDS011;65652;53.132;18.026;2023-07-31T13:44:41;4.10;;;1.40;;
76727;SDS011;65652;53.132;18.026;2023-07-31T13:47:08;6.80;;;1.30;;
76727;SDS011;65652;53.132;18.026;2023-07-31T13:49:35;4.60;;;1.50;;
76727;SDS011;65652;53.132;18.026;2023-07-31T13:52:02;4.60;;;1.50;;
76727;SDS011;65652;53.132;18.026;2023-07-31T13:54:29;4.00;;;1.40;;
76727;SDS011;65652;53.132;18.026;2023-07-31T13:56:55;4.00;;;1.20;;
76727;SDS011;65652;53.132;18.026;2023-07-31T13:59:21;5.20;;;1.80;;
76727;SDS011;65652;53.132;18.026;2023-07-31T14:01:47;5.60;;;1.60;;
76727;SDS011;65652;53.132;18.026;2023-07-31T14:04:14;4.60;;;1.20;;
76727;SDS011;65652;53.132;18.026;2023-07-31T14:06:40;4.90;;;1.30;;
76727;SDS011;65652;53.132;18.026;2023-07-31T14:09:06;4.50;;;1.50;;
76727;SDS011;65652;53.132;18.026;2023-07-31T14:11:33;3.80;;;1.80;;
76727;SDS011;65652;53.132;18.026;2023-07-31T14:13:59;4.50;;;1.20;;
76727;SDS011;65652;53.132;18.026;2023-07-31T14:16:27;4.20;;;1.40;;
76727;SDS011;65652;53.132;18.026;2023-07-31T14:18:54;4.80;;;1.60;;
76727;SDS011;65652;53.132;18.026;2023-07-31T14:21:20;5.10;;;1.50;;
76727;SDS011;65652;53.132;18.026;2023-07-31T14:23:46;4.10;;;1.50;;
76727;SDS011;65652;53.132;18.026;2023-07-31T14:26:13;5.10;;;1.60;;
76727;SDS011;65652;53.132;18.026;2023-07-31T14:28:39;4.80;;;1.50;;
76727;SDS011;65652;53.132;18.026;2023-07-31T14:31:05;4.00;;;1.40;;
76727;SDS011;65652;53.132;18.026;2023-07-31T14:33:31;4.50;;;1.70;;
76727;SDS011;65652;53.132;18.026;2023-07-31T14:35:58;5.40;;;1.70;;
76727;SDS011;65652;53.132;18.026;2023-07-31T14:38:24;3.60;;;1.40;;
76727;SDS011;65652;53.132;18.026;2023-07-31T14:40:51;3.20;;;1.20;;
76727;SDS011;65652;53.132;18.026;2023-07-31T14:43:17;4.30;;;1.60;;
76727;SDS011;65652;53.132;18.026;2023-07-31T14:45:43;3.10;;;1.30;;
76727;SDS011;65652;53.132;18.026;2023-07-31T14:48:12;4.80;;;1.40;;
76727;SDS011;65652;53.132;18.026;2023-07-31T14:50:38;3.60;;;1.30;;
76727;SDS011;65652;53.132;18.026;2023-07-31T14:53:05;4.00;;;1.20;;
76727;SDS011;65652;53.132;18.026;2023-07-31T14:55:31;3.50;;;1.40;;
76727;SDS011;65652;53.132;18.026;2023-07-31T14:57:57;3.70;;;1.40;;
76727;SDS011;65652;53.132;18.026;2023-07-31T15:00:23;3.40;;;1.50;;
76727;SDS011;65652;53.132;18.026;2023-07-31T15:02:50;4.10;;;1.60;;
76727;SDS011;65652;53.132;18.026;2023-07-31T15:05:16;4.70;;;1.60;;
76727;SDS011;65652;53.132;18.026;2023-07-31T15:07:42;4.30;;;1.60;;
76727;SDS011;65652;53.132;18.026;2023-07-31T15:10:09;3.70;;;1.40;;